sensor_id;sensor_type;location;lat;lon;timestamp;pressure;altitude;pressure_sealevel;temperature;humidity
78717;BME280;68045;50.042;14.432;2024-02-23T00:01:30;96013.31;;;12.16;69.63
78717;BME280;68045;50.042;14.432;2024-02-23T00:05:32;95989.59;;;12.11;70.74
78717;BME280;68045;50.042;14.432;2024-02-23T00:09:33;96000.47;;;12.09;70.05
78717;BME280;68045;50.042;14.432;2024-02-23T00:13:35;95990.78;;;12.05;70.19
78717;BME280;68045;50.042;14.432;2024-02-23T00:17:36;95994.31;;;12.00;70.15
78717;BME280;68045;50.042;14.432;2024-02-23T00:21:37;95987.06;;;12.20;68.89
78717;BME280;68045;50.042;14.432;2024-02-23T00:25:39;95971.06;;;12.25;69.08
78717;BME280;68045;50.042;14.432;2024-02-23T00:29:40;95976.63;;;12.37;67.86
78717;BME280;68045;50.042;14.432;2024-02-23T00:33:41;95983.69;;;12.42;67.77
78717;BME280;68045;50.042;14.432;2024-02-23T00:37:43;95998.56;;;12.37;67.74
78717;BME280;68045;50.042;14.432;2024-02-23T00:41:45;96003.56;;;12.39;67.88
78717;BME280;68045;50.042;14.432;2024-02-23T00:45:46;96010.03;;;12.33;67.95
78717;BME280;68045;50.042;14.432;2024-02-23T00:49:48;96003.28;;;12.41;67.25
78717;BME280;68045;50.042;14.432;2024-02-23T00:53:49;95999.97;;;12.35;68.20
78717;BME280;68045;50.042;14.432;2024-02-23T00:57:50;96010.75;;;12.25;68.48
78717;BME280;68045;50.042;14.432;2024-02-23T01:01:50;96014.78;;;12.22;67.74
78717;BME280;68045;50.042;14.432;2024-02-23T01:05:51;96024.47;;;12.27;67.56
78717;BME280;68045;50.042;14.432;2024-02-23T01:09:52;96055.81;;;12.33;67.53
78717;BME280;68045;50.042;14.432;2024-02-23T01:13:54;96034.44;;;12.44;67.51
78717;BME280;68045;50.042;14.432;2024-02-23T01:17:55;96066.34;;;12.61;66.61
78717;BME280;68045;50.042;14.432;2024-02-23T01:21:57;96059.69;;;12.63;66.70
78717;BME280;68045;50.042;14.432;2024-02-23T01:26:01;96085.78;;;12.56;66.73
78717;BME280;68045;50.042;14.432;2024-02-23T01:30:04;96071.47;;;12.57;66.86
78717;BME280;68045;50.042;14.432;2024-02-23T01:34:05;96074.69;;;12.54;67.23
78717;BME280;68045;50.042;14.432;2024-02-23T01:38:06;96085.78;;;12.56;66.95
78717;BME280;68045;50.042;14.432;2024-02-23T01:42:08;96085.06;;;12.64;66.75
78717;BME280;68045;50.042;14.432;2024-02-23T01:46:09;96093.78;;;12.65;66.80
78717;BME280;68045;50.042;14.432;2024-02-23T01:50:11;96097.50;;;12.78;65.61
78717;BME280;68045;50.042;14.432;2024-02-23T01:54:13;96101.22;;;12.77;64.52
78717;BME280;68045;50.042;14.432;2024-02-23T01:58:15;96124.94;;;12.68;61.17
78717;BME280;68045;50.042;14.432;2024-02-23T02:02:16;96121.03;;;12.65;61.62
78717;BME280;68045;50.042;14.432;2024-02-23T02:06:17;96109.19;;;12.63;60.87
78717;BME280;68045;50.042;14.432;2024-02-23T02:10:20;96116.34;;;12.49;60.82
78717;BME280;68045;50.042;14.432;2024-02-23T02:14:21;96102.59;;;12.60;59.62
78717;BME280;68045;50.042;14.432;2024-02-23T02:18:23;96109.69;;;12.51;59.90
78717;BME280;68045;50.042;14.432;2024-02-23T02:22:24;96139.97;;;12.45;60.46
78717;BME280;68045;50.042;14.432;2024-02-23T02:26:26;96157.91;;;12.48;60.09
78717;BME280;68045;50.042;14.432;2024-02-23T02:30:27;96147.50;;;12.38;61.41
78717;BME280;68045;50.042;14.432;2024-02-23T02:34:28;96156.22;;;12.52;61.77
78717;BME280;68045;50.042;14.432;2024-02-23T02:38:29;96168.09;;;12.41;63.00
78717;BME280;68045;50.042;14.432;2024-02-23T02:42:30;96148.78;;;12.41;63.62
78717;BME280;68045;50.042;14.432;2024-02-23T02:46:31;96162.28;;;12.39;63.90
78717;BME280;68045;50.042;14.432;2024-02-23T02:50:33;96162.00;;;12.27;64.30
78717;BME280;68045;50.042;14.432;2024-02-23T02:54:34;96174.06;;;12.19;63.39
78717;BME280;68045;50.042;14.432;2024-02-23T02:58:35;96166.69;;;12.16;63.14
78717;BME280;68045;50.042;14.432;2024-02-23T03:02:37;96170.19;;;12.12;61.51
78717;BME280;68045;50.042;14.432;2024-02-23T03:06:38;96162.34;;;11.93;61.62
78717;BME280;68045;50.042;14.432;2024-02-23T03:10:39;96210.53;;;12.03;60.51
78717;BME280;68045;50.042;14.432;2024-02-23T03:14:40;96190.63;;;11.92;60.58
78717;BME280;68045;50.042;14.432;2024-02-23T03:18:42;96191.03;;;11.99;60.37
78717;BME280;68045;50.042;14.432;2024-02-23T03:22:44;96194.91;;;11.88;59.54
78717;BME280;68045;50.042;14.432;2024-02-23T03:26:45;96217.72;;;11.84;58.95
78717;BME280;68045;50.042;14.432;2024-02-23T03:30:46;96216.56;;;11.71;59.36
78717;BME280;68045;50.042;14.432;2024-02-23T03:34:46;96232.63;;;11.75;58.81
78717;BME280;68045;50.042;14.432;2024-02-23T03:38:47;96233.56;;;11.65;58.18
78717;BME280;68045;50.042;14.432;2024-02-23T03:42:50;96250.25;;;11.61;58.18
78717;BME280;68045;50.042;14.432;2024-02-23T03:46:51;96253.97;;;11.60;56.88
78717;BME280;68045;50.042;14.432;2024-02-23T03:50:51;96263.34;;;11.52;57.66
78717;BME280;68045;50.042;14.432;2024-02-23T03:54:53;96264.34;;;11.56;56.99
78717;BME280;68045;50.042;14.432;2024-02-23T03:58:55;96278.94;;;11.48;55.99
78717;BME280;68045;50.042;14.432;2024-02-23T04:02:56;96277.47;;;11.42;55.89
78717;BME280;68045;50.042;14.432;2024-02-23T04:06:56;96302.19;;;11.27;54.88
78717;BME280;68045;50.042;14.432;2024-02-23T04:10:59;96291.13;;;11.25;55.73
78717;BME280;68045;50.042;14.432;2024-02-23T04:15:00;96298.75;;;11.27;54.38
78717;BME280;68045;50.042;14.432;2024-02-23T04:19:01;96319.72;;;11.18;55.04
78717;BME280;68045;50.042;14.432;2024-02-23T04:23:02;96321.13;;;11.11;55.51
78717;BME280;68045;50.042;14.432;2024-02-23T04:27:05;96314.16;;;11.20;55.01
78717;BME280;68045;50.042;14.432;2024-02-23T04:31:07;96318.78;;;11.09;54.68
78717;BME280;68045;50.042;14.432;2024-02-23T04:35:08;96318.34;;;11.02;56.06
78717;BME280;68045;50.042;14.432;2024-02-23T04:39:09;96335.47;;;11.05;55.73
78717;BME280;68045;50.042;14.432;2024-02-23T04:43:10;96340.84;;;10.94;56.26
78717;BME280;68045;50.042;14.432;2024-02-23T04:47:12;96353.56;;;10.92;56.49
78717;BME280;68045;50.042;14.432;2024-02-23T04:51:13;96349.25;;;10.72;55.15
78717;BME280;68045;50.042;14.432;2024-02-23T04:55:14;96379.41;;;10.61;54.85
78717;BME280;68045;50.042;14.432;2024-02-23T04:59:15;96375.69;;;10.62;55.41
78717;BME280;68045;50.042;14.432;2024-02-23T05:03:15;96393.59;;;10.36;55.51
78717;BME280;68045;50.042;14.432;2024-02-23T05:07:17;96392.00;;;10.35;55.25
78717;BME280;68045;50.042;14.432;2024-02-23T05:11:17;96401.72;;;10.40;54.85
78717;BME280;68045;50.042;14.432;2024-02-23T05:15:20;96410.25;;;10.27;55.44
78717;BME280;68045;50.042;14.432;2024-02-23T05:19:22;96417.84;;;10.33;55.37
78717;BME280;68045;50.042;14.432;2024-02-23T05:23:25;96424.22;;;10.27;55.06
78717;BME280;68045;50.042;14.432;2024-02-23T05:27:26;96436.88;;;10.25;55.15
78717;BME280;68045;50.042;14.432;2024-02-23T05:31:44;96441.66;;;10.18;55.89
78717;BME280;68045;50.042;14.432;2024-02-23T05:35:45;96423.97;;;10.18;55.30
78717;BME280;68045;50.042;14.432;2024-02-23T05:39:49;96453.53;;;10.15;55.36
78717;BME280;68045;50.042;14.432;2024-02-23T05:43:50;96466.44;;;10.17;55.98
78717;BME280;68045;50.042;14.432;2024-02-23T05:47:52;96470.66;;;10.13;56.54
78717;BME280;68045;50.042;14.432;2024-02-23T05:51:54;96479.19;;;9.89;57.76
78717;BME280;68045;50.042;14.432;2024-02-23T05:55:55;96494.78;;;9.71;58.56
78717;BME280;68045;50.042;14.432;2024-02-23T05:59:56;96483.47;;;9.80;58.25
78717;BME280;68045;50.042;14.432;2024-02-23T06:03:57;96482.97;;;9.63;59.09
78717;BME280;68045;50.042;14.432;2024-02-23T06:07:58;96498.78;;;9.63;58.30
78717;BME280;68045;50.042;14.432;2024-02-23T06:11:59;96506.94;;;9.56;58.37
78717;BME280;68045;50.042;14.432;2024-02-23T06:16:01;96519.88;;;9.53;58.60
78717;BME280;68045;50.042;14.432;2024-02-23T06:20:01;96505.38;;;9.55;58.87
78717;BME280;68045;50.042;14.432;2024-02-23T06:24:03;96510.13;;;9.53;58.90
78717;BME280;68045;50.042;14.432;2024-02-23T06:28:04;96527.25;;;9.46;59.03
78717;BME280;68045;50.042;14.432;2024-02-23T06:32:06;96530.13;;;9.44;58.46
78717;BME280;68045;50.042;14.432;2024-02-23T06:36:07;96530.41;;;9.53;59.70
78717;BME280;68045;50.042;14.432;2024-02-23T06:40:09;96532.78;;;9.54;59.22
78717;BME280;68045;50.042;14.432;2024-02-23T06:44:10;96527.25;;;9.35;60.22
78717;BME280;68045;50.042;14.432;2024-02-23T06:48:11;96529.34;;;9.49;60.01
78717;BME280;68045;50.042;14.432;2024-02-23T06:52:12;96543.84;;;9.36;60.66
78717;BME280;68045;50.042;14.432;2024-02-23T06:56:14;96546.22;;;9.22;60.46
78717;BME280;68045;50.042;14.432;2024-02-23T07:00:15;96542.50;;;9.44;60.58
78717;BME280;68045;50.042;14.432;2024-02-23T07:04:16;96551.47;;;9.43;59.96
78717;BME280;68045;50.042;14.432;2024-02-23T07:08:18;96574.88;;;9.70;59.62
78717;BME280;68045;50.042;14.432;2024-02-23T07:12:20;96590.94;;;9.88;58.44
78717;BME280;68045;50.042;14.432;2024-02-23T07:16:21;96579.63;;;9.57;59.67
78717;BME280;68045;50.042;14.432;2024-02-23T07:20:22;96600.44;;;9.64;59.32
78717;BME280;68045;50.042;14.432;2024-02-23T07:24:23;96581.22;;;9.69;59.17
78717;BME280;68045;50.042;14.432;2024-02-23T07:28:24;96600.97;;;9.51;59.20
78717;BME280;68045;50.042;14.432;2024-02-23T07:32:25;96599.41;;;9.45;60.12
78717;BME280;68045;50.042;14.432;2024-02-23T07:36:28;96604.66;;;9.40;59.89
78717;BME280;68045;50.042;14.432;2024-02-23T07:40:29;96604.94;;;9.38;60.38
78717;BME280;68045;50.042;14.432;2024-02-23T07:44:29;96592.03;;;9.31;60.56
78717;BME280;68045;50.042;14.432;2024-02-23T07:48:30;96595.97;;;9.44;59.84
78717;BME280;68045;50.042;14.432;2024-02-23T07:52:31;96605.97;;;9.32;60.31
78717;BME280;68045;50.042;14.432;2024-02-23T07:56:33;96615.19;;;9.40;59.46
78717;BME280;68045;50.042;14.432;2024-02-23T08:00:34;96619.66;;;9.44;59.83
78717;BME280;68045;50.042;14.432;2024-02-23T08:04:38;96617.03;;;9.49;59.36
78717;BME280;68045;50.042;14.432;2024-02-23T08:08:39;96637.06;;;9.60;59.23
78717;BME280;68045;50.042;14.432;2024-02-23T08:12:40;96632.84;;;9.39;59.92
78717;BME280;68045;50.042;14.432;2024-02-23T08:16:41;96655.19;;;9.36;59.55
78717;BME280;68045;50.042;14.432;2024-02-23T08:20:42;96654.41;;;9.36;59.42
78717;BME280;68045;50.042;14.432;2024-02-23T08:24:43;96671.22;;;9.04;60.26
78717;BME280;68045;50.042;14.432;2024-02-23T08:28:44;96667.53;;;9.05;60.10
78717;BME280;68045;50.042;14.432;2024-02-23T08:32:45;96653.00;;;8.88;60.44
78717;BME280;68045;50.042;14.432;2024-02-23T08:36:47;96636.19;;;8.89;60.23
78717;BME280;68045;50.042;14.432;2024-02-23T08:40:47;96639.38;;;9.11;59.52
78717;BME280;68045;50.042;14.432;2024-02-23T08:44:49;96676.22;;;9.11;59.36
78717;BME280;68045;50.042;14.432;2024-02-23T08:48:50;96664.66;;;9.22;59.11
78717;BME280;68045;50.042;14.432;2024-02-23T08:52:52;96657.06;;;9.56;58.42
78717;BME280;68045;50.042;14.432;2024-02-23T08:56:53;96660.75;;;9.76;57.65
78717;BME280;68045;50.042;14.432;2024-02-23T09:00:54;96662.88;;;9.53;57.89
78717;BME280;68045;50.042;14.432;2024-02-23T09:04:56;96692.88;;;9.57;57.09
78717;BME280;68045;50.042;14.432;2024-02-23T09:08:57;96701.28;;;9.44;57.18
78717;BME280;68045;50.042;14.432;2024-02-23T09:12:58;96700.50;;;9.49;57.35
78717;BME280;68045;50.042;14.432;2024-02-23T09:16:59;96700.56;;;9.59;57.41
78717;BME280;68045;50.042;14.432;2024-02-23T09:21:02;96692.63;;;9.54;57.38
78717;BME280;68045;50.042;14.432;2024-02-23T09:25:05;96687.13;;;9.96;56.56
78717;BME280;68045;50.042;14.432;2024-02-23T09:29:06;96699.75;;;10.09;55.05
78717;BME280;68045;50.042;14.432;2024-02-23T09:33:07;96700.81;;;9.98;55.43
78717;BME280;68045;50.042;14.432;2024-02-23T09:37:09;96696.66;;;10.97;52.76
78717;BME280;68045;50.042;14.432;2024-02-23T09:41:18;96705.53;;;11.61;51.56
78717;BME280;68045;50.042;14.432;2024-02-23T09:45:21;96696.72;;;12.39;49.01
78717;BME280;68045;50.042;14.432;2024-02-23T09:49:22;96693.00;;;14.66;43.06
78717;BME280;68045;50.042;14.432;2024-02-23T09:53:23;96670.31;;;13.25;44.84
78717;BME280;68045;50.042;14.432;2024-02-23T09:57:25;96681.16;;;11.30;49.83
78717;BME280;68045;50.042;14.432;2024-02-23T10:01:33;96674.31;;;10.69;51.33
78717;BME280;68045;50.042;14.432;2024-02-23T10:05:34;96673.34;;;10.40;52.00
78717;BME280;68045;50.042;14.432;2024-02-23T10:09:36;96662.81;;;10.50;52.10
78717;BME280;68045;50.042;14.432;2024-02-23T10:13:40;96674.44;;;10.34;52.03
78717;BME280;68045;50.042;14.432;2024-02-23T10:17:42;96673.31;;;10.55;52.37
78717;BME280;68045;50.042;14.432;2024-02-23T10:21:45;96683.28;;;10.68;51.42
78717;BME280;68045;50.042;14.432;2024-02-23T10:25:46;96696.00;;;10.56;51.59
78717;BME280;68045;50.042;14.432;2024-02-23T10:29:49;96689.50;;;10.23;52.38
78717;BME280;68045;50.042;14.432;2024-02-23T10:33:52;96688.13;;;10.21;52.67
78717;BME280;68045;50.042;14.432;2024-02-23T10:37:56;96701.34;;;10.05;52.59
78717;BME280;68045;50.042;14.432;2024-02-23T10:42:00;96714.78;;;9.83;53.31
78717;BME280;68045;50.042;14.432;2024-02-23T10:46:03;96749.03;;;9.78;53.27
78717;BME280;68045;50.042;14.432;2024-02-23T10:50:10;96737.44;;;9.89;53.76
78717;BME280;68045;50.042;14.432;2024-02-23T10:54:15;96744.81;;;9.98;52.81
78717;BME280;68045;50.042;14.432;2024-02-23T10:58:20;96756.16;;;9.73;53.66
78717;BME280;68045;50.042;14.432;2024-02-23T11:02:24;96768.28;;;9.94;53.50
78717;BME280;68045;50.042;14.432;2024-02-23T11:06:29;96759.06;;;10.07;53.53
78717;BME280;68045;50.042;14.432;2024-02-23T11:10:30;96771.44;;;9.96;53.66
78717;BME280;68045;50.042;14.432;2024-02-23T11:14:35;96756.66;;;9.85;54.03
78717;BME280;68045;50.042;14.432;2024-02-23T11:18:39;96771.41;;;9.60;53.89
78717;BME280;68045;50.042;14.432;2024-02-23T11:22:40;96778.19;;;9.51;54.30
78717;BME280;68045;50.042;14.432;2024-02-23T11:26:41;96766.94;;;9.76;53.69
78717;BME280;68045;50.042;14.432;2024-02-23T11:30:44;96765.91;;;9.82;53.83
78717;BME280;68045;50.042;14.432;2024-02-23T11:34:57;96769.59;;;9.81;53.00
78717;BME280;68045;50.042;14.432;2024-02-23T11:38:59;96772.50;;;10.21;52.38
78717;BME280;68045;50.042;14.432;2024-02-23T11:43:01;96768.81;;;10.06;52.63
78717;BME280;68045;50.042;14.432;2024-02-23T11:47:02;96758.00;;;9.87;52.78
78717;BME280;68045;50.042;14.432;2024-02-23T11:51:03;96756.41;;;9.76;52.84
78717;BME280;68045;50.042;14.432;2024-02-23T11:55:05;96747.16;;;9.53;53.15
78717;BME280;68045;50.042;14.432;2024-02-23T11:59:08;96752.47;;;9.89;53.07
78717;BME280;68045;50.042;14.432;2024-02-23T12:03:09;96755.13;;;9.94;52.56
78717;BME280;68045;50.042;14.432;2024-02-23T12:07:11;96751.41;;;10.05;52.26
78717;BME280;68045;50.042;14.432;2024-02-23T12:11:12;96753.78;;;10.17;51.70
78717;BME280;68045;50.042;14.432;2024-02-23T12:15:14;96744.03;;;10.17;51.99
78717;BME280;68045;50.042;14.432;2024-02-23T12:19:15;96737.44;;;10.40;52.68
78717;BME280;68045;50.042;14.432;2024-02-23T12:23:16;96735.84;;;10.19;51.71
78717;BME280;68045;50.042;14.432;2024-02-23T12:27:20;96734.28;;;10.28;51.47
78717;BME280;68045;50.042;14.432;2024-02-23T12:31:25;96735.06;;;9.98;52.39
78717;BME280;68045;50.042;14.432;2024-02-23T12:35:28;96732.69;;;10.12;52.29
78717;BME280;68045;50.042;14.432;2024-02-23T12:39:29;96743.78;;;10.04;52.49
78717;BME280;68045;50.042;14.432;2024-02-23T12:43:30;96751.69;;;9.88;51.92
78717;BME280;68045;50.042;14.432;2024-02-23T12:47:32;96755.91;;;10.05;52.64
78717;BME280;68045;50.042;14.432;2024-02-23T12:51:32;96760.09;;;10.06;52.32
78717;BME280;68045;50.042;14.432;2024-02-23T12:55:35;96759.84;;;10.12;51.73
78717;BME280;68045;50.042;14.432;2024-02-23T12:59:37;96762.53;;;10.23;52.00
78717;BME280;68045;50.042;14.432;2024-02-23T13:03:39;96760.13;;;10.47;51.39
78717;BME280;68045;50.042;14.432;2024-02-23T13:07:42;96756.44;;;10.53;50.58
78717;BME280;68045;50.042;14.432;2024-02-23T13:11:44;96760.94;;;10.32;51.21
78717;BME280;68045;50.042;14.432;2024-02-23T13:15:48;96755.63;;;10.47;51.08
78717;BME280;68045;50.042;14.432;2024-02-23T13:19:49;96746.09;;;10.71;50.61
78717;BME280;68045;50.042;14.432;2024-02-23T13:23:50;96739.94;;;10.91;50.00
78717;BME280;68045;50.042;14.432;2024-02-23T13:27:51;96736.34;;;11.32;48.73
78717;BME280;68045;50.042;14.432;2024-02-23T13:31:53;96734.47;;;12.74;46.17
78717;BME280;68045;50.042;14.432;2024-02-23T13:35:54;96744.38;;;13.91;42.67
78717;BME280;68045;50.042;14.432;2024-02-23T13:39:55;96739.50;;;15.32;39.30
78717;BME280;68045;50.042;14.432;2024-02-23T13:43:56;96737.28;;;15.48;37.59
78717;BME280;68045;50.042;14.432;2024-02-23T13:48:02;96728.50;;;14.24;40.04
78717;BME280;68045;50.042;14.432;2024-02-23T13:52:06;96722.09;;;12.93;43.01
78717;BME280;68045;50.042;14.432;2024-02-23T13:56:06;96728.88;;;12.51;44.64
78717;BME280;68045;50.042;14.432;2024-02-23T14:00:10;96724.69;;;12.21;46.12
78717;BME280;68045;50.042;14.432;2024-02-23T14:04:13;96733.72;;;11.81;47.05
78717;BME280;68045;50.042;14.432;2024-02-23T14:08:14;96734.47;;;11.42;47.68
78717;BME280;68045;50.042;14.432;2024-02-23T14:12:15;96725.19;;;10.85;48.59
78717;BME280;68045;50.042;14.432;2024-02-23T14:16:16;96733.16;;;10.70;48.53
78717;BME280;68045;50.042;14.432;2024-02-23T14:20:17;96718.91;;;10.71;49.01
78717;BME280;68045;50.042;14.432;2024-02-23T14:24:18;96707.97;;;11.08;48.53
78717;BME280;68045;50.042;14.432;2024-02-23T14:28:20;96705.88;;;11.49;47.84
78717;BME280;68045;50.042;14.432;2024-02-23T14:32:21;96702.53;;;11.78;46.65
78717;BME280;68045;50.042;14.432;2024-02-23T14:36:22;96705.56;;;12.29;46.74
78717;BME280;68045;50.042;14.432;2024-02-23T14:40:25;96713.78;;;12.52;46.23
78717;BME280;68045;50.042;14.432;2024-02-23T14:44:27;96722.00;;;11.92;45.96
78717;BME280;68045;50.042;14.432;2024-02-23T14:48:28;96717.47;;;11.53;46.55
78717;BME280;68045;50.042;14.432;2024-02-23T14:52:29;96720.50;;;11.76;46.40
78717;BME280;68045;50.042;14.432;2024-02-23T14:56:31;96722.72;;;11.14;47.24
78717;BME280;68045;50.042;14.432;2024-02-23T15:00:32;96721.66;;;11.15;46.88
78717;BME280;68045;50.042;14.432;2024-02-23T15:04:34;96711.63;;;11.12;48.67
78717;BME280;68045;50.042;14.432;2024-02-23T15:08:37;96727.41;;;10.58;48.28
78717;BME280;68045;50.042;14.432;2024-02-23T15:12:41;96716.56;;;10.59;48.41
78717;BME280;68045;50.042;14.432;2024-02-23T15:16:43;96708.44;;;10.51;48.90
78717;BME280;68045;50.042;14.432;2024-02-23T15:20:44;96701.25;;;10.61;49.20
78717;BME280;68045;50.042;14.432;2024-02-23T15:24:47;96703.66;;;10.58;49.36
78717;BME280;68045;50.042;14.432;2024-02-23T15:28:51;96700.53;;;10.45;49.48
78717;BME280;68045;50.042;14.432;2024-02-23T15:32:54;96695.19;;;10.61;50.25
78717;BME280;68045;50.042;14.432;2024-02-23T15:36:55;96676.78;;;10.51;49.67
78717;BME280;68045;50.042;14.432;2024-02-23T15:40:56;96679.34;;;10.66;50.58
78717;BME280;68045;50.042;14.432;2024-02-23T15:44:57;96687.84;;;10.53;49.21
78717;BME280;68045;50.042;14.432;2024-02-23T15:48:58;96732.97;;;10.36;50.72
78717;BME280;68045;50.042;14.432;2024-02-23T15:52:59;96711.34;;;10.44;51.15
78717;BME280;68045;50.042;14.432;2024-02-23T15:57:00;96702.38;;;10.50;52.36
78717;BME280;68045;50.042;14.432;2024-02-23T16:01:02;96699.19;;;10.48;51.66
78717;BME280;68045;50.042;14.432;2024-02-23T16:05:03;96701.25;;;10.61;52.41
78717;BME280;68045;50.042;14.432;2024-02-23T16:09:08;96720.56;;;10.47;50.65
78717;BME280;68045;50.042;14.432;2024-02-23T16:13:10;96728.50;;;10.31;50.72
78717;BME280;68045;50.042;14.432;2024-02-23T16:17:11;96730.63;;;10.24;51.45
78717;BME280;68045;50.042;14.432;2024-02-23T16:21:15;96722.69;;;10.09;52.91
78717;BME280;68045;50.042;14.432;2024-02-23T16:25:19;96730.06;;;10.07;52.56
78717;BME280;68045;50.042;14.432;2024-02-23T16:29:19;96745.63;;;10.08;53.19
78717;BME280;68045;50.042;14.432;2024-02-23T16:33:20;96753.25;;;10.00;52.14
78717;BME280;68045;50.042;14.432;2024-02-23T16:37:23;96756.16;;;9.73;52.68
78717;BME280;68045;50.042;14.432;2024-02-23T16:41:26;96752.75;;;9.87;53.24
78717;BME280;68045;50.042;14.432;2024-02-23T16:45:27;96747.72;;;9.76;53.18
78717;BME280;68045;50.042;14.432;2024-02-23T16:49:28;96749.28;;;9.77;53.23
78717;BME280;68045;50.042;14.432;2024-02-23T16:53:29;96741.66;;;9.80;53.96
78717;BME280;68045;50.042;14.432;2024-02-23T16:57:30;96749.81;;;9.79;54.07
78717;BME280;68045;50.042;14.432;2024-02-23T17:01:31;96736.63;;;9.79;53.50
78717;BME280;68045;50.042;14.432;2024-02-23T17:05:33;96743.25;;;9.81;54.08
78717;BME280;68045;50.042;14.432;2024-02-23T17:09:34;96744.03;;;9.82;53.83
78717;BME280;68045;50.042;14.432;2024-02-23T17:13:35;96736.94;;;9.87;54.03
78717;BME280;68045;50.042;14.432;2024-02-23T17:17:36;96747.47;;;9.87;54.58
78717;BME280;68045;50.042;14.432;2024-02-23T17:21:37;96745.59;;;9.83;54.50
78717;BME280;68045;50.042;14.432;2024-02-23T17:25:38;96730.84;;;9.92;54.18
78717;BME280;68045;50.042;14.432;2024-02-23T17:29:39;96737.97;;;9.86;54.17
78717;BME280;68045;50.042;14.432;2024-02-23T17:33:40;96745.59;;;9.83;54.54
78717;BME280;68045;50.042;14.432;2024-02-23T17:37:43;96743.75;;;9.83;53.35
78717;BME280;68045;50.042;14.432;2024-02-23T17:41:44;96749.28;;;9.77;52.82
78717;BME280;68045;50.042;14.432;2024-02-23T17:45:45;96749.56;;;9.80;52.65
78717;BME280;68045;50.042;14.432;2024-02-23T17:49:46;96753.78;;;9.81;52.85
78717;BME280;68045;50.042;14.432;2024-02-23T17:53:48;96746.16;;;9.80;52.85
78717;BME280;68045;50.042;14.432;2024-02-23T17:57:49;96749.81;;;9.84;53.96
78717;BME280;68045;50.042;14.432;2024-02-23T18:01:50;96730.59;;;9.83;53.21
78717;BME280;68045;50.042;14.432;2024-02-23T18:05:52;96730.31;;;9.90;54.30
78717;BME280;68045;50.042;14.432;2024-02-23T18:09:55;96731.91;;;9.91;54.13
78717;BME280;68045;50.042;14.432;2024-02-23T18:13:55;96732.16;;;9.84;54.73
78717;BME280;68045;50.042;14.432;2024-02-23T18:17:57;96744.03;;;9.92;55.06
78717;BME280;68045;50.042;14.432;2024-02-23T18:22:00;96743.50;;;9.85;55.18
78717;BME280;68045;50.042;14.432;2024-02-23T18:26:03;96729.53;;;9.84;55.83
78717;BME280;68045;50.042;14.432;2024-02-23T18:30:04;96723.75;;;9.82;55.33
78717;BME280;68045;50.042;14.432;2024-02-23T18:34:06;96717.16;;;9.85;55.50
78717;BME280;68045;50.042;14.432;2024-02-23T18:38:06;96710.81;;;9.86;56.53
78717;BME280;68045;50.042;14.432;2024-02-23T18:42:08;96725.84;;;9.70;54.12
78717;BME280;68045;50.042;14.432;2024-02-23T18:46:11;96721.09;;;9.67;54.34
78717;BME280;68045;50.042;14.432;2024-02-23T18:50:14;96729.25;;;9.71;54.17
78717;BME280;68045;50.042;14.432;2024-02-23T18:54:15;96724.25;;;9.64;55.14
78717;BME280;68045;50.042;14.432;2024-02-23T18:58:16;96722.94;;;9.61;55.25
78717;BME280;68045;50.042;14.432;2024-02-23T19:02:18;96727.13;;;9.57;55.02
78717;BME280;68045;50.042;14.432;2024-02-23T19:06:19;96734.53;;;9.66;53.55
78717;BME280;68045;50.042;14.432;2024-02-23T19:10:20;96745.03;;;9.55;53.78
78717;BME280;68045;50.042;14.432;2024-02-23T19:14:21;96741.63;;;9.55;53.98
78717;BME280;68045;50.042;14.432;2024-02-23T19:18:23;96740.31;;;9.68;54.03
78717;BME280;68045;50.042;14.432;2024-02-23T19:22:25;96735.56;;;9.64;54.08
78717;BME280;68045;50.042;14.432;2024-02-23T19:26:27;96722.41;;;9.64;54.16
78717;BME280;68045;50.042;14.432;2024-02-23T19:30:28;96727.91;;;9.38;49.98
78717;BME280;68045;50.042;14.432;2024-02-23T19:34:30;96726.59;;;9.45;50.48
78717;BME280;68045;50.042;14.432;2024-02-23T19:38:31;96725.81;;;9.55;52.38
78717;BME280;68045;50.042;14.432;2024-02-23T19:42:33;96727.38;;;9.51;50.53
78717;BME280;68045;50.042;14.432;2024-02-23T19:46:34;96737.41;;;9.54;52.19
78717;BME280;68045;50.042;14.432;2024-02-23T19:50:35;96715.03;;;9.67;53.95
78717;BME280;68045;50.042;14.432;2024-02-23T19:54:36;96702.91;;;9.60;55.52
78717;BME280;68045;50.042;14.432;2024-02-23T19:58:37;96699.22;;;9.46;52.41
78717;BME280;68045;50.042;14.432;2024-02-23T20:02:39;96688.38;;;9.43;53.86
78717;BME280;68045;50.042;14.432;2024-02-23T20:06:39;96698.66;;;9.44;56.59
78717;BME280;68045;50.042;14.432;2024-02-23T20:10:40;96708.41;;;9.33;55.65
78717;BME280;68045;50.042;14.432;2024-02-23T20:14:41;96694.94;;;9.20;53.59
78717;BME280;68045;50.042;14.432;2024-02-23T20:18:44;96700.47;;;9.18;54.89
78717;BME280;68045;50.042;14.432;2024-02-23T20:22:45;96687.81;;;9.10;55.74
78717;BME280;68045;50.042;14.432;2024-02-23T20:26:46;96694.66;;;9.21;55.77
78717;BME280;68045;50.042;14.432;2024-02-23T20:30:47;96701.00;;;9.20;55.06
78717;BME280;68045;50.042;14.432;2024-02-23T20:34:50;96713.09;;;9.21;55.31
78717;BME280;68045;50.042;14.432;2024-02-23T20:38:51;96716.22;;;9.13;54.56
78717;BME280;68045;50.042;14.432;2024-02-23T20:42:52;96709.63;;;9.05;54.18
78717;BME280;68045;50.042;14.432;2024-02-23T20:46:53;96706.66;;;8.87;55.27
78717;BME280;68045;50.042;14.432;2024-02-23T20:50:54;96700.88;;;8.85;54.67
78717;BME280;68045;50.042;14.432;2024-02-23T20:54:55;96703.78;;;8.88;55.10
78717;BME280;68045;50.042;14.432;2024-02-23T20:58:56;96711.69;;;8.88;55.40
78717;BME280;68045;50.042;14.432;2024-02-23T21:02:57;96708.81;;;9.00;56.38
78717;BME280;68045;50.042;14.432;2024-02-23T21:06:58;96705.47;;;9.20;57.92
78717;BME280;68045;50.042;14.432;2024-02-23T21:10:59;96706.00;;;9.27;59.16